createdAt,value
2023-01-31T00:00:09.202Z,102416.03
2023-01-31T00:05:12.990Z,102411.69
2023-01-31T00:10:18.606Z,102416.19
2023-01-31T00:15:22.561Z,102415.88
2023-01-31T00:20:26.357Z,102406.97
2023-01-31T00:25:31.595Z,102410.72
2023-01-31T00:30:35.809Z,102410.25
2023-01-31T00:35:41.753Z,102404.84
2023-01-31T00:40:54.095Z,102405.16
2023-01-31T00:45:57.893Z,102404.84
2023-01-31T00:51:01.709Z,102404.13
2023-01-31T00:56:09.057Z,102382.94
2023-01-31T01:01:15.473Z,102381.41
2023-01-31T01:06:21.355Z,102378.25
2023-01-31T01:11:28.682Z,102376.63
2023-01-31T01:16:34.478Z,102358.87
2023-01-31T01:21:40.816Z,102361.44
2023-01-31T01:26:46.823Z,102363.69
2023-01-31T01:31:50.753Z,102356.69
2023-01-31T01:36:54.728Z,102353.53
2023-01-31T01:41:59.872Z,102357.88
2023-01-31T01:47:03.807Z,102345.88
2023-01-31T01:52:11.252Z,102346.91
2023-01-31T01:57:19.748Z,102335.81
2023-01-31T02:02:27.855Z,102340.59
2023-01-31T02:07:31.983Z,102335.81
2023-01-31T02:12:37.373Z,102343.31
2023-01-31T02:17:41.333Z,102344.38
2023-01-31T02:22:57.825Z,102353.81
2023-01-31T02:28:37.839Z,102344.53
2023-01-31T02:33:50.517Z,102355.66
2023-01-31T02:39:07.974Z,102351.00
2023-01-31T02:44:38.873Z,102346.94
2023-01-31T02:49:50.022Z,102347.84
2023-01-31T02:55:19.394Z,102339.13
2023-01-31T03:00:25.103Z,102335.22
2023-01-31T03:05:30.613Z,102338.09
2023-01-31T03:11:01.942Z,102325.63
2023-01-31T03:16:36.517Z,102339.13
2023-01-31T03:21:47.272Z,102329.81
2023-01-31T03:26:52.607Z,102337.00
2023-01-31T03:32:02.062Z,102336.59
2023-01-31T03:37:13.874Z,102337.19
2023-01-31T03:42:26.346Z,102334.31
2023-01-31T03:47:36.290Z,102336.44
2023-01-31T03:52:47.410Z,102322.59
2023-01-31T03:57:54.332Z,102314.94
2023-01-31T04:03:07.122Z,102317.19
2023-01-31T04:08:13.144Z,102306.69
2023-01-31T04:13:19.193Z,102302.19
2023-01-31T04:18:22.910Z,102296.00
2023-01-31T04:23:28.052Z,102309.38
2023-01-31T04:28:32.121Z,102308.78
2023-01-31T04:33:35.870Z,102298.09
2023-01-31T04:38:40.994Z,102301.25
2023-01-31T04:43:44.822Z,102296.91
2023-01-31T04:48:48.542Z,102303.81
2023-01-31T04:53:53.786Z,102285.66
2023-01-31T04:58:57.500Z,102277.37
2023-01-31T05:04:01.224Z,102267.00
2023-01-31T05:09:06.689Z,102260.53
2023-01-31T05:14:11.045Z,102253.19
2023-01-31T05:19:15.118Z,102253.63
2023-01-31T05:24:21.217Z,102251.50
2023-01-31T05:29:25.442Z,102258.16
2023-01-31T05:34:32.746Z,102244.59
2023-01-31T05:39:37.892Z,102236.50
2023-01-31T05:44:41.744Z,102243.84
2023-01-31T05:49:45.443Z,102230.94
2023-01-31T05:54:50.786Z,102232.12
2023-01-31T05:59:54.738Z,102232.44
2023-01-31T06:04:58.564Z,102227.47
2023-01-31T06:10:03.934Z,102222.06
2023-01-31T06:15:08.686Z,102219.50
2023-01-31T06:20:13.091Z,102221.91
2023-01-31T06:25:18.766Z,102215.75
2023-01-31T06:30:22.912Z,102214.53
2023-01-31T06:35:26.835Z,102221.75
2023-01-31T06:40:32.744Z,102222.19
2023-01-31T06:45:37.767Z,102209.41
2023-01-31T06:50:41.593Z,102197.06
2023-01-31T06:55:46.738Z,102202.97
2023-01-31T07:00:50.496Z,102221.44
2023-01-31T07:05:54.309Z,102212.56
2023-01-31T07:11:01.684Z,102200.84
2023-01-31T07:16:06.193Z,102196.63
2023-01-31T07:21:10.841Z,102194.19
2023-01-31T07:26:16.218Z,102189.41
2023-01-31T07:31:20.883Z,102185.19
2023-01-31T07:36:26.587Z,102193.28
2023-01-31T07:41:32.127Z,102189.34
2023-01-31T07:46:36.184Z,102171.16
2023-01-31T07:51:40.291Z,102164.06
2023-01-31T07:56:45.388Z,102168.09
2023-01-31T08:02:06.843Z,102169.88
2023-01-31T08:07:10.704Z,102145.94
2023-01-31T08:12:15.763Z,102146.22
2023-01-31T08:17:19.824Z,102149.47
2023-01-31T08:22:23.537Z,102144.34
2023-01-31T08:27:29.501Z,102142.06
2023-01-31T08:32:36.281Z,102119.09
2023-01-31T08:37:40.030Z,102123.88
2023-01-31T08:42:45.286Z,102107.41
2023-01-31T08:47:49.226Z,102094.56
2023-01-31T08:52:54.868Z,102095.25
2023-01-31T08:58:02.021Z,102094.25
2023-01-31T09:03:05.863Z,102096.97
2023-01-31T09:08:09.766Z,102101.00
2023-01-31T09:13:14.893Z,102093.19
2023-01-31T09:18:18.661Z,102079.56
2023-01-31T09:23:22.837Z,102072.75
2023-01-31T09:28:28.880Z,102067.78
2023-01-31T09:33:33.750Z,102079.25
2023-01-31T09:38:37.634Z,102086.31
2023-01-31T09:43:46.954Z,102075.22
2023-01-31T09:48:53.311Z,102078.44
2023-01-31T09:53:57.855Z,102078.47
2023-01-31T09:59:10.967Z,102075.28
2023-01-31T10:04:30.989Z,102074.25
2023-01-31T10:09:39.764Z,102082.28
2023-01-31T10:14:50.371Z,102054.63
2023-01-31T10:19:58.422Z,102050.41
2023-01-31T10:25:09.699Z,102037.97
2023-01-31T10:30:19.795Z,102048.62
2023-01-31T10:35:28.328Z,102058.78
2023-01-31T10:40:36.622Z,102066.22
2023-01-31T10:45:41.976Z,102058.13
2023-01-31T10:50:58.198Z,102053.25
2023-01-31T10:56:06.900Z,102058.00
2023-01-31T11:01:14.573Z,102046.59
2023-01-31T11:06:19.296Z,102042.34
2023-01-31T11:11:25.401Z,102035.22
2023-01-31T11:16:34.851Z,102031.38
2023-01-31T11:21:41.014Z,102011.03
2023-01-31T11:26:53.062Z,102010.47
2023-01-31T11:31:59.317Z,102002.81
2023-01-31T11:37:13.875Z,102005.16
2023-01-31T11:42:18.348Z,101995.13
2023-01-31T11:47:28.563Z,102002.97
2023-01-31T11:52:34.748Z,101998.81
2023-01-31T11:57:40.482Z,101993.81
2023-01-31T12:02:46.130Z,101997.91
2023-01-31T12:07:55.158Z,102006.28
2023-01-31T12:13:17.589Z,102016.78
2023-01-31T12:18:38.183Z,102016.44
2023-01-31T12:23:51.937Z,102024.94
2023-01-31T12:29:12.007Z,102028.28
2023-01-31T12:34:50.485Z,102018.00
2023-01-31T12:40:25.150Z,102004.25
2023-01-31T12:45:43.820Z,101999.87
2023-01-31T12:50:52.501Z,102017.22
2023-01-31T12:56:07.484Z,102014.66
2023-01-31T13:01:17.034Z,102000.03
2023-01-31T13:06:25.611Z,101986.16
2023-01-31T13:11:36.283Z,101985.38
2023-01-31T13:16:44.337Z,101977.88
2023-01-31T13:21:53.751Z,101985.19
2023-01-31T13:27:02.102Z,101993.38
2023-01-31T13:32:11.179Z,101996.06
2023-01-31T13:37:20.963Z,101985.38
2023-01-31T13:42:24.829Z,101968.97
2023-01-31T13:47:31.283Z,101959.19
2023-01-31T13:52:46.776Z,101962.91
2023-01-31T13:57:57.305Z,101982.06
2023-01-31T14:03:02.355Z,101971.56
2023-01-31T14:08:39.753Z,101970.69
2023-01-31T14:13:45.577Z,101966.56
2023-01-31T14:18:49.382Z,101973.13
2023-01-31T14:23:54.504Z,101972.94
2023-01-31T14:28:58.751Z,101985.91
2023-01-31T14:34:04.054Z,101996.66
2023-01-31T14:39:42.044Z,102008.63
2023-01-31T14:44:57.751Z,102004.28
2023-01-31T14:50:25.042Z,102011.31
2023-01-31T14:55:49.700Z,102020.03
2023-01-31T15:00:58.450Z,102014.78
2023-01-31T15:06:12.872Z,102023.63
2023-01-31T15:11:42.899Z,102026.66
2023-01-31T15:16:47.776Z,102030.25
2023-01-31T15:21:55.439Z,102035.41
2023-01-31T15:27:02.147Z,102039.75
2023-01-31T15:32:17.597Z,102045.72
2023-01-31T15:37:25.384Z,102029.78
2023-01-31T15:42:31.929Z,102030.94
2023-01-31T15:47:35.779Z,102034.94
2023-01-31T15:52:39.772Z,102044.09
2023-01-31T15:57:52.823Z,102043.97
2023-01-31T16:03:01.539Z,102060.09
2023-01-31T16:08:08.285Z,102065.09
2023-01-31T16:13:14.421Z,102070.25
2023-01-31T16:18:19.403Z,102078.09
2023-01-31T16:23:31.881Z,102085.16
2023-01-31T16:28:43.455Z,102090.06
2023-01-31T16:33:51.191Z,102100.47
2023-01-31T16:39:00.183Z,102102.94
2023-01-31T16:44:06.313Z,102106.25
2023-01-31T16:49:21.951Z,102125.97
2023-01-31T16:54:30.650Z,102114.66
2023-01-31T16:59:51.444Z,102098.19
2023-01-31T17:04:57.883Z,102094.94
2023-01-31T17:10:04.928Z,102089.41
2023-01-31T17:15:15.935Z,102091.63
2023-01-31T17:20:21.954Z,102075.97
2023-01-31T17:25:29.582Z,102085.34
2023-01-31T17:30:36.212Z,102077.37
2023-01-31T17:35:41.824Z,102078.72
2023-01-31T17:40:48.900Z,102079.91
2023-01-31T17:45:54.105Z,102086.34
2023-01-31T17:50:57.893Z,102086.63
2023-01-31T17:56:01.702Z,102081.41
2023-01-31T18:01:09.796Z,102083.09
2023-01-31T18:06:13.873Z,102084.03
2023-01-31T18:11:19.218Z,102090.34
2023-01-31T18:16:25.975Z,102107.72
2023-01-31T18:21:29.898Z,102104.69
2023-01-31T18:26:33.697Z,102103.41
2023-01-31T18:31:38.969Z,102096.06
2023-01-31T18:36:42.827Z,102103.16
2023-01-31T18:41:46.808Z,102097.00
2023-01-31T18:46:52.179Z,102100.72
2023-01-31T18:51:55.915Z,102099.56
2023-01-31T18:56:59.822Z,102086.47
2023-01-31T19:02:05.344Z,102101.50
2023-01-31T19:07:09.265Z,102104.06
2023-01-31T19:12:13.248Z,102103.81
2023-01-31T19:17:20.579Z,102095.59
2023-01-31T19:22:28.514Z,102099.47
2023-01-31T19:27:32.573Z,102097.53
2023-01-31T19:32:37.899Z,102110.22
2023-01-31T19:37:41.820Z,102105.09
2023-01-31T19:42:45.967Z,102101.37
2023-01-31T19:47:51.316Z,102091.22
2023-01-31T19:52:55.090Z,102108.31
2023-01-31T19:57:58.822Z,102104.06
2023-01-31T20:03:04.166Z,102089.31
2023-01-31T20:08:08.363Z,102106.12
2023-01-31T20:13:12.187Z,102114.19
2023-01-31T20:18:17.728Z,102101.91
2023-01-31T20:23:22.634Z,102096.75
2023-01-31T20:28:29.238Z,102087.37
2023-01-31T20:33:34.987Z,102088.66
2023-01-31T20:38:40.116Z,102097.66
2023-01-31T20:43:44.369Z,102089.41
2023-01-31T20:48:49.986Z,102087.34
2023-01-31T20:53:53.909Z,102081.56
2023-01-31T20:58:59.860Z,102094.63
2023-01-31T21:04:06.281Z,102091.41
2023-01-31T21:09:10.897Z,102092.06
2023-01-31T21:14:14.730Z,102075.53
2023-01-31T21:19:20.182Z,102064.88
2023-01-31T21:24:24.219Z,102062.56
2023-01-31T21:29:27.970Z,102055.34
2023-01-31T21:34:33.080Z,102051.13
2023-01-31T21:39:36.945Z,102053.03
2023-01-31T21:44:40.646Z,102048.84
2023-01-31T21:49:45.721Z,102032.91
2023-01-31T21:54:49.563Z,102026.53
2023-01-31T21:59:53.293Z,102033.09
2023-01-31T22:04:58.389Z,102031.16
2023-01-31T22:10:02.145Z,102028.22
2023-01-31T22:15:06.640Z,102019.25
2023-01-31T22:20:15.716Z,102014.41
2023-01-31T22:25:19.520Z,102013.13
2023-01-31T22:30:23.266Z,102008.50
2023-01-31T22:35:28.405Z,102013.13
2023-01-31T22:40:32.153Z,102006.84
2023-01-31T22:45:35.939Z,102005.16
2023-01-31T22:50:41.318Z,102016.06
2023-01-31T22:55:45.105Z,102028.25
2023-01-31T23:00:49.857Z,102016.81
2023-01-31T23:05:54.996Z,102014.66
2023-01-31T23:11:04.782Z,102019.38
2023-01-31T23:16:10.840Z,102010.25
2023-01-31T23:21:18.065Z,102008.34
2023-01-31T23:26:22.122Z,102021.66
2023-01-31T23:31:26.229Z,102008.59
2023-01-31T23:36:31.791Z,102005.50
2023-01-31T23:41:35.576Z,102016.25
2023-01-31T23:46:39.379Z,101997.78
2023-01-31T23:51:44.444Z,102000.47
2023-01-31T23:56:48.259Z,101994.31
